sensor_id;sensor_type;location;lat;lon;timestamp;P1;durP1;ratioP1;P2;durP2;ratioP2
47749;SDS011;49810;48.160;10.812;2023-01-15T00:00:00;0.70;;;0.20;;
47749;SDS011;49810;48.160;10.812;2023-01-15T00:02:32;1.20;;;0.40;;
47749;SDS011;49810;48.160;10.812;2023-01-15T00:05:00;2.05;;;0.63;;
47749;SDS011;49810;48.160;10.812;2023-01-15T00:07:29;0.93;;;0.50;;
47749;SDS011;49810;48.160;10.812;2023-01-15T00:09:57;0.82;;;0.47;;
47749;SDS011;49810;48.160;10.812;2023-01-15T00:12:25;0.52;;;0.35;;
47749;SDS011;49810;48.160;10.812;2023-01-15T00:14:53;0.98;;;0.50;;
47749;SDS011;49810;48.160;10.812;2023-01-15T00:17:23;1.60;;;0.40;;
47749;SDS011;49810;48.160;10.812;2023-01-15T00:19:53;0.38;;;0.30;;
47749;SDS011;49810;48.160;10.812;2023-01-15T00:22:20;0.82;;;0.50;;
47749;SDS011;49810;48.160;10.812;2023-01-15T00:24:48;0.98;;;0.30;;
47749;SDS011;49810;48.160;10.812;2023-01-15T00:27:34;0.90;;;0.45;;
47749;SDS011;49810;48.160;10.812;2023-01-15T00:30:10;1.23;;;0.40;;
47749;SDS011;49810;48.160;10.812;2023-01-15T00:32:38;0.95;;;0.50;;
47749;SDS011;49810;48.160;10.812;2023-01-15T00:35:09;0.75;;;0.32;;
47749;SDS011;49810;48.160;10.812;2023-01-15T00:37:38;0.47;;;0.28;;
47749;SDS011;49810;48.160;10.812;2023-01-15T00:40:06;1.00;;;0.40;;
47749;SDS011;49810;48.160;10.812;2023-01-15T00:42:34;0.73;;;0.32;;
47749;SDS011;49810;48.160;10.812;2023-01-15T00:45:02;1.90;;;0.40;;
47749;SDS011;49810;48.160;10.812;2023-01-15T00:47:36;1.42;;;0.50;;
47749;SDS011;49810;48.160;10.812;2023-01-15T00:50:04;0.73;;;0.20;;
47749;SDS011;49810;48.160;10.812;2023-01-15T00:52:34;0.95;;;0.38;;
47749;SDS011;49810;48.160;10.812;2023-01-15T00:55:02;0.50;;;0.30;;
47749;SDS011;49810;48.160;10.812;2023-01-15T00:57:30;1.60;;;0.40;;
47749;SDS011;49810;48.160;10.812;2023-01-15T00:59:58;0.82;;;0.40;;
47749;SDS011;49810;48.160;10.812;2023-01-15T01:02:26;0.98;;;0.40;;
47749;SDS011;49810;48.160;10.812;2023-01-15T01:04:54;1.55;;;0.40;;
47749;SDS011;49810;48.160;10.812;2023-01-15T01:07:22;1.08;;;0.40;;
47749;SDS011;49810;48.160;10.812;2023-01-15T01:09:51;0.82;;;0.43;;
47749;SDS011;49810;48.160;10.812;2023-01-15T01:12:19;0.80;;;0.40;;
47749;SDS011;49810;48.160;10.812;2023-01-15T01:14:49;0.80;;;0.43;;
47749;SDS011;49810;48.160;10.812;2023-01-15T01:17:16;1.73;;;0.52;;
47749;SDS011;49810;48.160;10.812;2023-01-15T01:19:46;0.90;;;0.60;;
47749;SDS011;49810;48.160;10.812;2023-01-15T01:22:14;2.38;;;0.43;;
47749;SDS011;49810;48.160;10.812;2023-01-15T01:24:42;0.98;;;0.40;;
47749;SDS011;49810;48.160;10.812;2023-01-15T01:27:11;1.45;;;0.40;;
47749;SDS011;49810;48.160;10.812;2023-01-15T01:29:39;1.35;;;0.60;;
47749;SDS011;49810;48.160;10.812;2023-01-15T01:32:08;1.33;;;0.60;;
47749;SDS011;49810;48.160;10.812;2023-01-15T01:34:36;3.05;;;0.77;;
47749;SDS011;49810;48.160;10.812;2023-01-15T01:37:04;2.28;;;0.65;;
47749;SDS011;49810;48.160;10.812;2023-01-15T01:39:32;0.98;;;0.50;;
47749;SDS011;49810;48.160;10.812;2023-01-15T01:41:59;2.15;;;0.52;;
47749;SDS011;49810;48.160;10.812;2023-01-15T01:47:16;1.52;;;0.50;;
47749;SDS011;49810;48.160;10.812;2023-01-15T01:49:45;1.00;;;0.50;;
47749;SDS011;49810;48.160;10.812;2023-01-15T01:52:15;2.90;;;0.77;;
47749;SDS011;49810;48.160;10.812;2023-01-15T01:54:45;2.38;;;0.88;;
47749;SDS011;49810;48.160;10.812;2023-01-15T01:57:14;0.98;;;0.50;;
47749;SDS011;49810;48.160;10.812;2023-01-15T01:59:42;0.85;;;0.50;;
47749;SDS011;49810;48.160;10.812;2023-01-15T02:02:10;1.02;;;0.50;;
47749;SDS011;49810;48.160;10.812;2023-01-15T02:04:40;1.92;;;0.80;;
47749;SDS011;49810;48.160;10.812;2023-01-15T02:07:08;1.52;;;0.70;;
47749;SDS011;49810;48.160;10.812;2023-01-15T02:09:39;1.00;;;0.52;;
47749;SDS011;49810;48.160;10.812;2023-01-15T02:12:08;1.38;;;0.57;;
47749;SDS011;49810;48.160;10.812;2023-01-15T02:14:38;2.08;;;0.60;;
47749;SDS011;49810;48.160;10.812;2023-01-15T02:17:11;2.55;;;0.63;;
47749;SDS011;49810;48.160;10.812;2023-01-15T02:19:46;0.88;;;0.50;;
47749;SDS011;49810;48.160;10.812;2023-01-15T02:22:18;1.35;;;0.80;;
47749;SDS011;49810;48.160;10.812;2023-01-15T02:24:51;1.02;;;0.50;;
47749;SDS011;49810;48.160;10.812;2023-01-15T02:27:23;2.58;;;0.50;;
47749;SDS011;49810;48.160;10.812;2023-01-15T02:29:53;2.10;;;0.60;;
47749;SDS011;49810;48.160;10.812;2023-01-15T02:32:26;1.77;;;0.50;;
47749;SDS011;49810;48.160;10.812;2023-01-15T02:34:56;1.23;;;0.75;;
47749;SDS011;49810;48.160;10.812;2023-01-15T02:37:29;5.05;;;0.70;;
47749;SDS011;49810;48.160;10.812;2023-01-15T02:39:58;1.77;;;0.80;;
47749;SDS011;49810;48.160;10.812;2023-01-15T02:42:31;1.77;;;0.55;;
47749;SDS011;49810;48.160;10.812;2023-01-15T02:45:01;0.77;;;0.40;;
47749;SDS011;49810;48.160;10.812;2023-01-15T02:47:32;2.08;;;0.60;;
47749;SDS011;49810;48.160;10.812;2023-01-15T02:50:03;0.65;;;0.52;;
47749;SDS011;49810;48.160;10.812;2023-01-15T02:52:38;2.15;;;0.50;;
47749;SDS011;49810;48.160;10.812;2023-01-15T02:55:10;3.97;;;0.70;;
47749;SDS011;49810;48.160;10.812;2023-01-15T02:57:44;1.65;;;0.70;;
47749;SDS011;49810;48.160;10.812;2023-01-15T03:00:15;2.03;;;0.70;;
47749;SDS011;49810;48.160;10.812;2023-01-15T03:02:46;1.88;;;0.80;;
47749;SDS011;49810;48.160;10.812;2023-01-15T03:05:17;1.77;;;0.65;;
47749;SDS011;49810;48.160;10.812;2023-01-15T03:07:47;1.00;;;0.50;;
47749;SDS011;49810;48.160;10.812;2023-01-15T03:10:16;0.82;;;0.43;;
47749;SDS011;49810;48.160;10.812;2023-01-15T03:12:47;1.60;;;0.63;;
47749;SDS011;49810;48.160;10.812;2023-01-15T03:15:46;0.95;;;0.50;;
47749;SDS011;49810;48.160;10.812;2023-01-15T03:18:35;1.40;;;0.60;;
47749;SDS011;49810;48.160;10.812;2023-01-15T03:21:04;1.58;;;0.80;;
47749;SDS011;49810;48.160;10.812;2023-01-15T03:23:36;1.35;;;0.52;;
47749;SDS011;49810;48.160;10.812;2023-01-15T03:26:05;1.88;;;0.70;;
47749;SDS011;49810;48.160;10.812;2023-01-15T03:28:39;1.42;;;0.68;;
47749;SDS011;49810;48.160;10.812;2023-01-15T03:31:08;2.65;;;0.70;;
47749;SDS011;49810;48.160;10.812;2023-01-15T03:33:35;0.90;;;0.50;;
47749;SDS011;49810;48.160;10.812;2023-01-15T03:36:10;1.42;;;0.65;;
47749;SDS011;49810;48.160;10.812;2023-01-15T03:38:44;2.30;;;0.70;;
47749;SDS011;49810;48.160;10.812;2023-01-15T03:41:39;1.30;;;0.52;;
47749;SDS011;49810;48.160;10.812;2023-01-15T03:44:15;1.83;;;0.60;;
47749;SDS011;49810;48.160;10.812;2023-01-15T03:46:49;1.48;;;0.60;;
47749;SDS011;49810;48.160;10.812;2023-01-15T03:49:20;1.55;;;0.70;;
47749;SDS011;49810;48.160;10.812;2023-01-15T03:51:54;2.58;;;0.60;;
47749;SDS011;49810;48.160;10.812;2023-01-15T03:54:27;1.70;;;0.60;;
47749;SDS011;49810;48.160;10.812;2023-01-15T03:57:00;2.25;;;0.85;;
47749;SDS011;49810;48.160;10.812;2023-01-15T03:59:32;2.53;;;1.08;;
47749;SDS011;49810;48.160;10.812;2023-01-15T04:02:01;2.58;;;1.00;;
47749;SDS011;49810;48.160;10.812;2023-01-15T04:04:31;2.63;;;1.10;;
47749;SDS011;49810;48.160;10.812;2023-01-15T04:07:02;1.65;;;1.00;;
47749;SDS011;49810;48.160;10.812;2023-01-15T04:09:35;2.22;;;1.02;;
47749;SDS011;49810;48.160;10.812;2023-01-15T04:12:03;1.30;;;0.65;;
47749;SDS011;49810;48.160;10.812;2023-01-15T04:14:38;1.92;;;0.68;;
47749;SDS011;49810;48.160;10.812;2023-01-15T04:17:09;2.55;;;0.98;;
47749;SDS011;49810;48.160;10.812;2023-01-15T04:19:37;1.13;;;0.63;;
47749;SDS011;49810;48.160;10.812;2023-01-15T04:22:07;1.58;;;0.60;;
47749;SDS011;49810;48.160;10.812;2023-01-15T04:24:36;1.52;;;0.60;;
47749;SDS011;49810;48.160;10.812;2023-01-15T04:27:03;1.73;;;0.68;;
47749;SDS011;49810;48.160;10.812;2023-01-15T04:29:31;1.08;;;0.68;;
47749;SDS011;49810;48.160;10.812;2023-01-15T04:32:01;1.55;;;0.70;;
47749;SDS011;49810;48.160;10.812;2023-01-15T04:34:29;2.25;;;1.13;;
47749;SDS011;49810;48.160;10.812;2023-01-15T04:36:57;1.88;;;0.98;;
47749;SDS011;49810;48.160;10.812;2023-01-15T04:39:24;2.97;;;1.27;;
47749;SDS011;49810;48.160;10.812;2023-01-15T04:41:52;2.97;;;1.00;;
47749;SDS011;49810;48.160;10.812;2023-01-15T04:44:38;1.48;;;0.90;;
47749;SDS011;49810;48.160;10.812;2023-01-15T04:47:07;2.03;;;0.93;;
47749;SDS011;49810;48.160;10.812;2023-01-15T04:49:35;1.92;;;0.95;;
47749;SDS011;49810;48.160;10.812;2023-01-15T04:52:02;2.50;;;1.08;;
47749;SDS011;49810;48.160;10.812;2023-01-15T04:54:30;1.45;;;0.70;;
47749;SDS011;49810;48.160;10.812;2023-01-15T04:56:58;2.35;;;1.05;;
47749;SDS011;49810;48.160;10.812;2023-01-15T04:59:26;5.10;;;1.33;;
47749;SDS011;49810;48.160;10.812;2023-01-15T05:01:54;2.28;;;0.52;;
47749;SDS011;49810;48.160;10.812;2023-01-15T05:04:33;1.50;;;0.60;;
47749;SDS011;49810;48.160;10.812;2023-01-15T05:07:01;1.42;;;0.60;;
47749;SDS011;49810;48.160;10.812;2023-01-15T05:09:29;5.00;;;0.80;;
47749;SDS011;49810;48.160;10.812;2023-01-15T05:11:57;0.75;;;0.50;;
47749;SDS011;49810;48.160;10.812;2023-01-15T05:14:25;1.13;;;0.60;;
47749;SDS011;49810;48.160;10.812;2023-01-15T05:16:53;3.97;;;1.15;;
47749;SDS011;49810;48.160;10.812;2023-01-15T05:19:21;1.67;;;0.60;;
47749;SDS011;49810;48.160;10.812;2023-01-15T05:21:50;4.28;;;0.70;;
47749;SDS011;49810;48.160;10.812;2023-01-15T05:24:18;2.13;;;0.68;;
47749;SDS011;49810;48.160;10.812;2023-01-15T05:26:46;1.25;;;0.60;;
47749;SDS011;49810;48.160;10.812;2023-01-15T05:29:14;1.42;;;0.50;;
47749;SDS011;49810;48.160;10.812;2023-01-15T05:31:42;1.58;;;0.65;;
47749;SDS011;49810;48.160;10.812;2023-01-15T05:34:11;1.02;;;0.50;;
47749;SDS011;49810;48.160;10.812;2023-01-15T05:36:39;1.58;;;0.60;;
47749;SDS011;49810;48.160;10.812;2023-01-15T05:39:09;1.33;;;0.60;;
47749;SDS011;49810;48.160;10.812;2023-01-15T05:41:38;2.15;;;0.50;;
47749;SDS011;49810;48.160;10.812;2023-01-15T05:44:19;1.33;;;0.50;;
47749;SDS011;49810;48.160;10.812;2023-01-15T05:46:48;1.00;;;0.43;;
47749;SDS011;49810;48.160;10.812;2023-01-15T05:49:16;0.63;;;0.50;;
47749;SDS011;49810;48.160;10.812;2023-01-15T05:51:44;1.30;;;0.60;;
47749;SDS011;49810;48.160;10.812;2023-01-15T05:54:14;1.25;;;0.47;;
47749;SDS011;49810;48.160;10.812;2023-01-15T05:56:43;1.17;;;0.30;;
47749;SDS011;49810;48.160;10.812;2023-01-15T05:59:12;0.60;;;0.30;;
47749;SDS011;49810;48.160;10.812;2023-01-15T06:01:40;0.30;;;0.30;;
47749;SDS011;49810;48.160;10.812;2023-01-15T06:04:08;0.73;;;0.40;;
47749;SDS011;49810;48.160;10.812;2023-01-15T06:06:36;1.35;;;0.38;;
47749;SDS011;49810;48.160;10.812;2023-01-15T06:09:05;0.60;;;0.30;;
47749;SDS011;49810;48.160;10.812;2023-01-15T06:11:34;0.20;;;0.20;;
47749;SDS011;49810;48.160;10.812;2023-01-15T06:14:02;0.80;;;0.30;;
47749;SDS011;49810;48.160;10.812;2023-01-15T06:16:30;1.15;;;0.47;;
47749;SDS011;49810;48.160;10.812;2023-01-15T06:18:59;1.88;;;0.32;;
47749;SDS011;49810;48.160;10.812;2023-01-15T06:21:27;1.48;;;0.43;;
47749;SDS011;49810;48.160;10.812;2023-01-15T06:23:54;1.83;;;0.80;;
47749;SDS011;49810;48.160;10.812;2023-01-15T06:26:22;1.08;;;0.40;;
47749;SDS011;49810;48.160;10.812;2023-01-15T06:28:51;0.80;;;0.38;;
47749;SDS011;49810;48.160;10.812;2023-01-15T06:31:20;1.38;;;0.60;;
47749;SDS011;49810;48.160;10.812;2023-01-15T06:33:48;0.95;;;0.30;;
47749;SDS011;49810;48.160;10.812;2023-01-15T06:36:16;0.77;;;0.30;;
47749;SDS011;49810;48.160;10.812;2023-01-15T06:38:48;0.80;;;0.20;;
47749;SDS011;49810;48.160;10.812;2023-01-15T06:41:17;1.95;;;0.40;;
47749;SDS011;49810;48.160;10.812;2023-01-15T06:44:04;0.82;;;0.47;;
47749;SDS011;49810;48.160;10.812;2023-01-15T06:46:50;0.50;;;0.28;;
47749;SDS011;49810;48.160;10.812;2023-01-15T06:49:36;0.82;;;0.35;;
47749;SDS011;49810;48.160;10.812;2023-01-15T06:52:05;1.55;;;0.50;;
47749;SDS011;49810;48.160;10.812;2023-01-15T06:54:34;1.58;;;0.30;;
47749;SDS011;49810;48.160;10.812;2023-01-15T06:57:02;0.52;;;0.40;;
47749;SDS011;49810;48.160;10.812;2023-01-15T06:59:32;0.70;;;0.30;;
47749;SDS011;49810;48.160;10.812;2023-01-15T07:02:00;1.42;;;0.30;;
47749;SDS011;49810;48.160;10.812;2023-01-15T07:04:28;0.52;;;0.30;;
47749;SDS011;49810;48.160;10.812;2023-01-15T07:06:56;1.17;;;0.20;;
47749;SDS011;49810;48.160;10.812;2023-01-15T07:09:24;0.45;;;0.32;;
47749;SDS011;49810;48.160;10.812;2023-01-15T07:11:51;1.10;;;0.50;;
47749;SDS011;49810;48.160;10.812;2023-01-15T07:14:20;0.40;;;0.30;;
47749;SDS011;49810;48.160;10.812;2023-01-15T07:16:49;1.45;;;0.47;;
47749;SDS011;49810;48.160;10.812;2023-01-15T07:19:19;1.08;;;0.50;;
47749;SDS011;49810;48.160;10.812;2023-01-15T07:21:47;0.60;;;0.30;;
47749;SDS011;49810;48.160;10.812;2023-01-15T07:24:15;0.70;;;0.30;;
47749;SDS011;49810;48.160;10.812;2023-01-15T07:26:45;0.45;;;0.20;;
47749;SDS011;49810;48.160;10.812;2023-01-15T07:29:16;2.58;;;0.50;;
47749;SDS011;49810;48.160;10.812;2023-01-15T07:31:44;1.25;;;0.57;;
47749;SDS011;49810;48.160;10.812;2023-01-15T07:34:14;0.95;;;0.30;;
47749;SDS011;49810;48.160;10.812;2023-01-15T07:36:42;0.45;;;0.22;;
47749;SDS011;49810;48.160;10.812;2023-01-15T07:39:10;1.30;;;0.38;;
47749;SDS011;49810;48.160;10.812;2023-01-15T07:41:38;2.08;;;0.40;;
47749;SDS011;49810;48.160;10.812;2023-01-15T07:44:24;0.75;;;0.30;;
47749;SDS011;49810;48.160;10.812;2023-01-15T07:47:17;0.73;;;0.30;;
47749;SDS011;49810;48.160;10.812;2023-01-15T07:50:07;0.55;;;0.30;;
47749;SDS011;49810;48.160;10.812;2023-01-15T07:52:35;0.60;;;0.40;;
47749;SDS011;49810;48.160;10.812;2023-01-15T07:55:04;0.52;;;0.30;;
47749;SDS011;49810;48.160;10.812;2023-01-15T07:57:34;0.35;;;0.25;;
47749;SDS011;49810;48.160;10.812;2023-01-15T08:00:03;2.95;;;0.20;;
47749;SDS011;49810;48.160;10.812;2023-01-15T08:02:37;0.20;;;0.20;;
47749;SDS011;49810;48.160;10.812;2023-01-15T08:05:07;0.57;;;0.25;;
47749;SDS011;49810;48.160;10.812;2023-01-15T08:07:35;1.98;;;0.30;;
47749;SDS011;49810;48.160;10.812;2023-01-15T08:10:03;0.73;;;0.45;;
47749;SDS011;49810;48.160;10.812;2023-01-15T08:12:31;0.73;;;0.40;;
47749;SDS011;49810;48.160;10.812;2023-01-15T08:15:17;0.73;;;0.20;;
47749;SDS011;49810;48.160;10.812;2023-01-15T08:17:45;0.45;;;0.30;;
47749;SDS011;49810;48.160;10.812;2023-01-15T08:20:15;0.93;;;0.38;;
47749;SDS011;49810;48.160;10.812;2023-01-15T08:22:43;0.30;;;0.30;;
47749;SDS011;49810;48.160;10.812;2023-01-15T08:25:12;1.95;;;0.32;;
47749;SDS011;49810;48.160;10.812;2023-01-15T08:27:43;1.88;;;0.82;;
47749;SDS011;49810;48.160;10.812;2023-01-15T08:30:13;1.63;;;0.60;;
47749;SDS011;49810;48.160;10.812;2023-01-15T08:32:41;1.65;;;0.85;;
47749;SDS011;49810;48.160;10.812;2023-01-15T08:35:09;1.30;;;0.60;;
47749;SDS011;49810;48.160;10.812;2023-01-15T08:37:40;1.33;;;0.57;;
47749;SDS011;49810;48.160;10.812;2023-01-15T08:40:08;1.08;;;0.50;;
47749;SDS011;49810;48.160;10.812;2023-01-15T08:42:37;0.65;;;0.40;;
47749;SDS011;49810;48.160;10.812;2023-01-15T08:45:07;0.85;;;0.40;;
47749;SDS011;49810;48.160;10.812;2023-01-15T08:47:35;1.42;;;0.50;;
47749;SDS011;49810;48.160;10.812;2023-01-15T08:50:03;1.00;;;0.50;;
47749;SDS011;49810;48.160;10.812;2023-01-15T08:52:31;0.93;;;0.35;;
47749;SDS011;49810;48.160;10.812;2023-01-15T08:55:01;0.85;;;0.50;;
47749;SDS011;49810;48.160;10.812;2023-01-15T08:57:28;1.38;;;0.50;;
47749;SDS011;49810;48.160;10.812;2023-01-15T08:59:56;1.13;;;0.40;;
47749;SDS011;49810;48.160;10.812;2023-01-15T09:02:24;4.03;;;0.63;;
47749;SDS011;49810;48.160;10.812;2023-01-15T09:04:53;0.82;;;0.40;;
47749;SDS011;49810;48.160;10.812;2023-01-15T09:07:21;1.35;;;0.57;;
47749;SDS011;49810;48.160;10.812;2023-01-15T09:09:48;2.03;;;0.40;;
47749;SDS011;49810;48.160;10.812;2023-01-15T09:12:18;1.05;;;0.30;;
47749;SDS011;49810;48.160;10.812;2023-01-15T09:14:47;1.67;;;0.88;;
47749;SDS011;49810;48.160;10.812;2023-01-15T09:17:29;0.47;;;0.40;;
47749;SDS011;49810;48.160;10.812;2023-01-15T09:19:58;0.70;;;0.40;;
47749;SDS011;49810;48.160;10.812;2023-01-15T09:22:26;0.73;;;0.43;;
47749;SDS011;49810;48.160;10.812;2023-01-15T09:24:57;1.67;;;0.40;;
47749;SDS011;49810;48.160;10.812;2023-01-15T09:27:26;1.70;;;0.40;;
47749;SDS011;49810;48.160;10.812;2023-01-15T09:29:55;0.68;;;0.30;;
47749;SDS011;49810;48.160;10.812;2023-01-15T09:32:23;0.80;;;0.50;;
47749;SDS011;49810;48.160;10.812;2023-01-15T09:34:51;0.82;;;0.50;;
47749;SDS011;49810;48.160;10.812;2023-01-15T09:37:18;1.17;;;0.22;;
47749;SDS011;49810;48.160;10.812;2023-01-15T09:39:46;1.23;;;0.75;;
47749;SDS011;49810;48.160;10.812;2023-01-15T09:42:21;2.72;;;1.25;;
47749;SDS011;49810;48.160;10.812;2023-01-15T09:44:57;5.13;;;2.97;;
47749;SDS011;49810;48.160;10.812;2023-01-15T09:47:29;0.80;;;0.40;;
47749;SDS011;49810;48.160;10.812;2023-01-15T09:49:59;1.05;;;0.65;;
47749;SDS011;49810;48.160;10.812;2023-01-15T09:52:33;0.90;;;0.32;;
47749;SDS011;49810;48.160;10.812;2023-01-15T09:55:04;2.00;;;0.50;;
47749;SDS011;49810;48.160;10.812;2023-01-15T09:57:34;0.60;;;0.40;;
47749;SDS011;49810;48.160;10.812;2023-01-15T10:00:05;1.38;;;0.47;;
47749;SDS011;49810;48.160;10.812;2023-01-15T10:02:39;0.57;;;0.40;;
47749;SDS011;49810;48.160;10.812;2023-01-15T10:05:10;4.10;;;1.38;;
47749;SDS011;49810;48.160;10.812;2023-01-15T10:07:44;0.83;;;0.33;;
47749;SDS011;49810;48.160;10.812;2023-01-15T10:10:14;4.85;;;1.88;;
47749;SDS011;49810;48.160;10.812;2023-01-15T10:12:44;0.65;;;0.40;;
47749;SDS011;49810;48.160;10.812;2023-01-15T10:15:16;0.60;;;0.40;;
47749;SDS011;49810;48.160;10.812;2023-01-15T10:17:47;1.23;;;0.45;;
47749;SDS011;49810;48.160;10.812;2023-01-15T10:20:16;0.50;;;0.30;;
47749;SDS011;49810;48.160;10.812;2023-01-15T10:22:52;0.50;;;0.40;;
47749;SDS011;49810;48.160;10.812;2023-01-15T10:25:26;2.08;;;0.60;;
47749;SDS011;49810;48.160;10.812;2023-01-15T10:27:55;3.20;;;1.30;;
47749;SDS011;49810;48.160;10.812;2023-01-15T10:30:30;0.90;;;0.40;;
47749;SDS011;49810;48.160;10.812;2023-01-15T10:33:04;1.05;;;0.40;;
47749;SDS011;49810;48.160;10.812;2023-01-15T10:38:08;1.00;;;0.60;;
47749;SDS011;49810;48.160;10.812;2023-01-15T10:41:02;0.50;;;0.20;;
47749;SDS011;49810;48.160;10.812;2023-01-15T10:43:37;1.17;;;0.70;;
47749;SDS011;49810;48.160;10.812;2023-01-15T10:46:10;4.78;;;1.38;;
47749;SDS011;49810;48.160;10.812;2023-01-15T10:48:41;1.73;;;0.50;;
47749;SDS011;49810;48.160;10.812;2023-01-15T10:51:11;1.48;;;0.57;;
47749;SDS011;49810;48.160;10.812;2023-01-15T10:53:41;2.65;;;1.20;;
47749;SDS011;49810;48.160;10.812;2023-01-15T10:56:12;0.98;;;0.57;;
47749;SDS011;49810;48.160;10.812;2023-01-15T10:58:43;2.65;;;1.38;;
47749;SDS011;49810;48.160;10.812;2023-01-15T11:01:14;3.35;;;0.52;;
47749;SDS011;49810;48.160;10.812;2023-01-15T11:03:45;3.15;;;1.85;;
47749;SDS011;49810;48.160;10.812;2023-01-15T11:06:13;5.20;;;1.67;;
47749;SDS011;49810;48.160;10.812;2023-01-15T11:08:44;3.78;;;1.17;;
47749;SDS011;49810;48.160;10.812;2023-01-15T11:11:33;1.85;;;0.90;;
47749;SDS011;49810;48.160;10.812;2023-01-15T11:14:30;5.47;;;2.22;;
47749;SDS011;49810;48.160;10.812;2023-01-15T11:17:17;3.60;;;1.42;;
47749;SDS011;49810;48.160;10.812;2023-01-15T11:20:02;6.03;;;2.00;;
47749;SDS011;49810;48.160;10.812;2023-01-15T11:22:31;4.13;;;1.58;;
47749;SDS011;49810;48.160;10.812;2023-01-15T11:25:05;3.83;;;1.80;;
47749;SDS011;49810;48.160;10.812;2023-01-15T11:27:36;6.68;;;3.25;;
47749;SDS011;49810;48.160;10.812;2023-01-15T11:30:04;2.63;;;1.65;;
47749;SDS011;49810;48.160;10.812;2023-01-15T11:32:35;5.60;;;3.45;;
47749;SDS011;49810;48.160;10.812;2023-01-15T11:35:13;3.50;;;1.70;;
47749;SDS011;49810;48.160;10.812;2023-01-15T11:37:42;4.63;;;2.25;;
47749;SDS011;49810;48.160;10.812;2023-01-15T11:40:14;2.92;;;1.10;;
47749;SDS011;49810;48.160;10.812;2023-01-15T11:42:45;1.90;;;1.15;;
47749;SDS011;49810;48.160;10.812;2023-01-15T11:45:30;4.55;;;1.90;;
47749;SDS011;49810;48.160;10.812;2023-01-15T11:48:18;5.05;;;1.60;;
47749;SDS011;49810;48.160;10.812;2023-01-15T11:51:05;2.45;;;1.23;;
47749;SDS011;49810;48.160;10.812;2023-01-15T11:53:34;1.67;;;0.73;;
47749;SDS011;49810;48.160;10.812;2023-01-15T11:56:07;1.80;;;1.30;;
47749;SDS011;49810;48.160;10.812;2023-01-15T11:58:38;1.52;;;1.15;;
47749;SDS011;49810;48.160;10.812;2023-01-15T12:01:06;1.27;;;1.10;;
47749;SDS011;49810;48.160;10.812;2023-01-15T12:03:38;2.03;;;1.05;;
47749;SDS011;49810;48.160;10.812;2023-01-15T12:06:08;1.52;;;0.85;;
47749;SDS011;49810;48.160;10.812;2023-01-15T12:08:45;2.42;;;1.60;;
47749;SDS011;49810;48.160;10.812;2023-01-15T12:11:20;1.10;;;1.00;;
47749;SDS011;49810;48.160;10.812;2023-01-15T12:13:56;2.20;;;1.58;;
47749;SDS011;49810;48.160;10.812;2023-01-15T12:16:26;5.00;;;2.25;;
47749;SDS011;49810;48.160;10.812;2023-01-15T12:18:58;11.00;;;5.85;;
47749;SDS011;49810;48.160;10.812;2023-01-15T12:21:38;8.15;;;5.35;;
47749;SDS011;49810;48.160;10.812;2023-01-15T12:24:22;3.33;;;2.05;;
47749;SDS011;49810;48.160;10.812;2023-01-15T12:26:56;1.03;;;0.60;;
47749;SDS011;49810;48.160;10.812;2023-01-15T12:29:28;0.90;;;0.70;;
47749;SDS011;49810;48.160;10.812;2023-01-15T12:31:58;1.30;;;0.82;;
47749;SDS011;49810;48.160;10.812;2023-01-15T12:34:30;1.58;;;0.52;;
47749;SDS011;49810;48.160;10.812;2023-01-15T12:37:02;4.90;;;2.10;;
47749;SDS011;49810;48.160;10.812;2023-01-15T12:39:32;2.50;;;1.08;;
47749;SDS011;49810;48.160;10.812;2023-01-15T12:42:03;1.00;;;0.40;;
47749;SDS011;49810;48.160;10.812;2023-01-15T12:44:50;2.35;;;1.13;;
47749;SDS011;49810;48.160;10.812;2023-01-15T12:47:33;2.47;;;0.30;;
47749;SDS011;49810;48.160;10.812;2023-01-15T12:50:05;0.68;;;0.28;;
47749;SDS011;49810;48.160;10.812;2023-01-15T12:52:36;2.17;;;0.73;;
47749;SDS011;49810;48.160;10.812;2023-01-15T12:55:08;4.45;;;1.58;;
47749;SDS011;49810;48.160;10.812;2023-01-15T12:57:40;2.03;;;0.90;;
47749;SDS011;49810;48.160;10.812;2023-01-15T13:00:10;3.45;;;1.00;;
47749;SDS011;49810;48.160;10.812;2023-01-15T13:02:53;4.07;;;1.77;;
47749;SDS011;49810;48.160;10.812;2023-01-15T13:05:27;4.65;;;1.30;;
47749;SDS011;49810;48.160;10.812;2023-01-15T13:07:58;2.83;;;1.23;;
47749;SDS011;49810;48.160;10.812;2023-01-15T13:10:28;1.23;;;0.60;;
47749;SDS011;49810;48.160;10.812;2023-01-15T13:13:01;2.60;;;1.10;;
47749;SDS011;49810;48.160;10.812;2023-01-15T13:15:36;0.20;;;0.20;;
47749;SDS011;49810;48.160;10.812;2023-01-15T13:18:09;3.25;;;0.90;;
47749;SDS011;49810;48.160;10.812;2023-01-15T13:20:45;0.28;;;0.25;;
47749;SDS011;49810;48.160;10.812;2023-01-15T13:23:17;1.83;;;0.60;;
47749;SDS011;49810;48.160;10.812;2023-01-15T13:26:01;0.80;;;0.50;;
47749;SDS011;49810;48.160;10.812;2023-01-15T13:28:33;1.33;;;0.70;;
47749;SDS011;49810;48.160;10.812;2023-01-15T13:31:08;0.90;;;0.40;;
47749;SDS011;49810;48.160;10.812;2023-01-15T13:33:39;1.95;;;1.08;;
47749;SDS011;49810;48.160;10.812;2023-01-15T13:36:12;1.13;;;0.70;;
47749;SDS011;49810;48.160;10.812;2023-01-15T13:38:44;0.98;;;0.60;;
47749;SDS011;49810;48.160;10.812;2023-01-15T13:41:15;2.47;;;0.80;;
47749;SDS011;49810;48.160;10.812;2023-01-15T13:44:05;0.98;;;0.70;;
47749;SDS011;49810;48.160;10.812;2023-01-15T13:46:32;3.67;;;1.88;;
47749;SDS011;49810;48.160;10.812;2023-01-15T13:49:00;9.57;;;4.13;;
47749;SDS011;49810;48.160;10.812;2023-01-15T13:51:32;5.38;;;1.88;;
47749;SDS011;49810;48.160;10.812;2023-01-15T13:54:08;1.42;;;0.65;;
47749;SDS011;49810;48.160;10.812;2023-01-15T14:01:50;3.97;;;2.70;;
47749;SDS011;49810;48.160;10.812;2023-01-15T14:04:30;6.78;;;5.10;;
47749;SDS011;49810;48.160;10.812;2023-01-15T14:07:00;3.22;;;1.98;;
47749;SDS011;49810;48.160;10.812;2023-01-15T14:09:28;4.00;;;2.13;;
47749;SDS011;49810;48.160;10.812;2023-01-15T14:12:00;8.27;;;3.83;;
47749;SDS011;49810;48.160;10.812;2023-01-15T14:14:47;3.05;;;1.50;;
47749;SDS011;49810;48.160;10.812;2023-01-15T14:17:24;6.55;;;3.75;;
47749;SDS011;49810;48.160;10.812;2023-01-15T14:19:59;0.98;;;0.80;;
47749;SDS011;49810;48.160;10.812;2023-01-15T14:22:34;2.85;;;2.60;;
47749;SDS011;49810;48.160;10.812;2023-01-15T14:25:13;2.42;;;1.90;;
47749;SDS011;49810;48.160;10.812;2023-01-15T14:27:47;3.45;;;2.25;;
47749;SDS011;49810;48.160;10.812;2023-01-15T14:30:23;5.65;;;0.80;;
47749;SDS011;49810;48.160;10.812;2023-01-15T14:32:59;0.55;;;0.20;;
47749;SDS011;49810;48.160;10.812;2023-01-15T14:35:35;4.60;;;3.00;;
47749;SDS011;49810;48.160;10.812;2023-01-15T14:38:05;2.83;;;0.60;;
47749;SDS011;49810;48.160;10.812;2023-01-15T14:40:34;2.10;;;1.00;;
47749;SDS011;49810;48.160;10.812;2023-01-15T14:43:07;2.67;;;1.00;;
47749;SDS011;49810;48.160;10.812;2023-01-15T14:45:37;1.35;;;0.70;;
47749;SDS011;49810;48.160;10.812;2023-01-15T14:48:16;2.25;;;1.10;;
47749;SDS011;49810;48.160;10.812;2023-01-15T14:50:44;2.38;;;1.20;;
47749;SDS011;49810;48.160;10.812;2023-01-15T14:53:28;5.05;;;2.90;;
47749;SDS011;49810;48.160;10.812;2023-01-15T14:56:00;6.68;;;3.58;;
47749;SDS011;49810;48.160;10.812;2023-01-15T14:58:30;9.88;;;5.68;;
47749;SDS011;49810;48.160;10.812;2023-01-15T15:01:03;18.13;;;11.20;;
47749;SDS011;49810;48.160;10.812;2023-01-15T15:03:36;14.48;;;9.68;;
47749;SDS011;49810;48.160;10.812;2023-01-15T15:06:08;2.22;;;1.13;;
47749;SDS011;49810;48.160;10.812;2023-01-15T15:08:39;3.60;;;2.38;;